Airfield :
LOGIN :

Register | Disclaimer

   EN    FR    IT 

 










Legend :    VFR   Marginal VFR   IFR   Intensive IFR   Very Intensive IFR
Visi :
Ceiling :
>= 8 km
>= 3000ft
5 to 8 km
1000 to 3000 ft
1500m to 5 km
500 to 1000 ft
800 to 1500m
200 to 500 ft
< 800m
< 200 ft
Symbols :   Thunderstorms  Fog  Heavy snow  Heavy precipitations  Wind > 20 kt
SIGMETs :     Misc.  Thunderstorms  Icing  Turbulence  Mountain Waves  Volcanic Ashes






- Airport Elevation : 290 ft
- IATA code : OSI


LDOS - Osijek

CURRENT METAR :
  • 280700Z 33004KT 300V010 9999 -RA FEW017 BKN037 14/12 Q1016

EXPIRED METARs :
  • 280630Z 35005KT 9999 BKN037 13/12 Q1016
  • 280600Z 03007KT 6000 -RA BKN040 13/12 Q1016 RERA
  • 280530Z 31007KT 9999 -RA BKN040 14/12 Q1016
  • 280500Z 32006KT 290V360 9999 -RA BKN043 15/12 Q1015
  • 280430Z 34006KT 9999 BKN043 15/13 Q1015

TAF TAF LDOS
Valid from the 28 at 06:00 until the 29 at 06:00 UTC


280525Z 2806/2906 35005KT 9999 BKN040 TX17/2814Z TN11/2904Z
PROB30
TEMPO 2806/2808 TSRA FEW030CB BKN040
PROB40
TEMPO 2814/2906 RA



MET'MAP, your aeronautical weather chart ! - Copyright ORBIFLY December 2007 - Disclaimer

ORBIFLY MET'MAP TEAM :

Programming & Development : Alexandra Zaïnal
Original concept : Baudouin d'Aumeries
Technical & hardware support : Manuel Goepfert
Assistance : Marc-Olivier Méhu

Contact : metmap@orbifly.com




SOURCES & CREDITS :

   NOAA